Aérodrome :
LOGIN :

S'inscrire | Disclaimer

   EN    FR    IT 

 










Légende :    VFR   VFR Marginal   IFR   IFR Intensif   IFR Très Intensif
Visi : 
Plafond : 
>= 8 km
>= 3000ft
5 à 8 km
1000 à 3000 ft
1500m à 5 km
500 à 1000 ft
800 à 1500m
200 à 500 ft
< 800m
< 200 ft
Symboles :   Orages  Brouillard  Fortes neiges  Fortes précipitations  Vent > 20 kt
SIGMETs :   Divers  Orages  Givrage  Turbulence  Onde Orograph.  Cendres Volcan.






- Altitude de l'aérodrome : 885 ft
- Code IATA : BAS


LFSB - Bale-Mulhouse

DERNIER METAR :
  • 181330Z AUTO 01010KT 320V030 9999 SCT027/// SCT040/// BKN054/// ///TCU 09/03 Q1018 TEMPO 36015G25KT 2000 -TSRAGS BKN020CB

METARs EXPIRÉS :
  • 181300Z AUTO 32008KT 280V340 9999 FEW025 SCT044 BKN052 09/04 Q1018 TEMPO 36015G25KT 2000 -TSRAGS BKN020CB
  • 181230Z AUTO 34013KT 9999 FEW010 BKN030 BKN035 08/03 Q1018 TEMPO 36015G25KT 2000 -TSRAGS BKN020CB
  • 181200Z AUTO 36009KT 320V050 9999 SCT026/// BKN031/// BKN040/// //////TCU 08/02 Q1018 TEMPO 36015G25KT 2000 -TSRAGS BKN020CB
  • 181130Z AUTO 01009KT 340V040 9999 BKN028 BKN034 BKN043 08/02 Q1018 TEMPO 36015G25KT 2000 -TSRAGS BKN020CB
  • 181100Z AUTO 28006KT 240V310 9999 FEW024/// SCT030/// BKN036/// ///TCU 07/02 Q1017 TEMPO 36015G25KT 2000 -TSRAGS BKN020CB
  • 181030Z AUTO 29007KT 250V020 9999 BKN031 BKN037 BKN066 08/03 Q1017 TEMPO 36015G25KT 2000 -TSRAGS BKN020CB
  • 181000Z AUTO 02006KT 340V090 9999 FEW027/// SCT048/// BKN098/// ///TCU 08/02 Q1017 TEMPO 36015G25KT 2000 -TSRAGS BKN020CB
  • 180930Z AUTO 01006KT 9999 SCT025 BKN060 BKN088 06/02 Q1017 TEMPO 36015G25KT 2000 -TSRAGS BKN020CB
  • 180900Z AUTO 32007KT 290V350 9999 BKN024 BKN031 BKN045 06/01 Q1016 TEMPO FEW035CB

TAF TAF LFSB
Valide du 18 à 12h jusqu'au 19 à 12h UTC


181100Z 1812/1912 36010KT 9999 SCT030TCU BKN050
TEMPO 1812/1819 -SHRA FEW035CB
PROB40
TEMPO 1812/1816 4000 SHRA SCT035CB
PROB30
TEMPO 1812/1816 36015G25KT 2000 -TSRAGS BKN020CB
BECMG 1820/1823 VRB03KT
BECMG 1907/1909 25010KT
TEMPO 1909/1912 -SHRA
PROB40
TEMPO 1910/1912 26015G25KT
Météo : +33 3 89 90 31 11



MET'MAP, la Météo Aéronautique d'un coup d'oeil ! - Copyright ORBIFLY Décembre 2007 - Disclaimer

ORBIFLY MET'MAP TEAM :

Programmation & Développement : Alexandra Zaïnal
Sur une idée originale de : Baudouin d'Aumeries
Soutien technique & logistique : Manuel Goepfert
Assistance : Marc-Olivier Méhu




SOURCES & CREDITS :

   NOAA